Shule, China
Current Conditions -  °F | °C
As of 6:00 AM on Monday 24 Nov 2014 (Local Time) from ZWSH Reporting Station
Clear Clear  
Wind Chill: 24°   Ceiling: Unl
Heat Index: 32°   Visibility: 6mi
Dew Point: 18°   Wind: 9mph
Humidity: 55%   Direction: 320°NW
Pressure: 30.12"   Gusts: NA
Location:  39.42°N, 76.1°E
Report Text: ZWSH 232200Z 32004MPS CAVOK M00/M08 Q1020 NOSIG
Loading
Personal Weather Stations






























Interactive Weather Map New forecast layout! Learn more

10-Day Weather Forecast

Advertisements
Track Severe Weather on mobile